sensor_id;sensor_type;location;lat;lon;timestamp;temperature;humidity
8539;DHT22;4307;53.868;11.680;2022-07-23T00:01:49;16.60;99.90
8539;DHT22;4307;53.868;11.680;2022-07-23T00:04:16;16.60;99.90
8539;DHT22;4307;53.868;11.680;2022-07-23T00:06:42;16.60;99.90
8539;DHT22;4307;53.868;11.680;2022-07-23T00:09:10;16.60;99.90
8539;DHT22;4307;53.868;11.680;2022-07-23T00:11:37;16.60;99.90
8539;DHT22;4307;53.868;11.680;2022-07-23T00:14:04;16.60;99.90
8539;DHT22;4307;53.868;11.680;2022-07-23T00:16:30;16.60;99.90
8539;DHT22;4307;53.868;11.680;2022-07-23T00:18:57;16.60;99.90
8539;DHT22;4307;53.868;11.680;2022-07-23T00:21:26;16.50;99.90
8539;DHT22;4307;53.868;11.680;2022-07-23T00:23:53;16.50;99.90
8539;DHT22;4307;53.868;11.680;2022-07-23T00:26:21;16.60;99.90
8539;DHT22;4307;53.868;11.680;2022-07-23T00:28:48;16.60;99.90
8539;DHT22;4307;53.868;11.680;2022-07-23T00:31:14;16.60;99.90
8539;DHT22;4307;53.868;11.680;2022-07-23T00:33:41;16.60;99.90
8539;DHT22;4307;53.868;11.680;2022-07-23T00:36:08;16.60;99.90
8539;DHT22;4307;53.868;11.680;2022-07-23T00:38:35;16.50;99.90
8539;DHT22;4307;53.868;11.680;2022-07-23T00:41:02;16.50;99.90
8539;DHT22;4307;53.868;11.680;2022-07-23T00:43:30;16.60;99.90
8539;DHT22;4307;53.868;11.680;2022-07-23T00:45:56;16.60;99.90
8539;DHT22;4307;53.868;11.680;2022-07-23T00:48:23;16.60;99.90
8539;DHT22;4307;53.868;11.680;2022-07-23T00:50:50;16.60;99.90
8539;DHT22;4307;53.868;11.680;2022-07-23T00:53:16;16.60;99.90
8539;DHT22;4307;53.868;11.680;2022-07-23T00:55:43;16.50;99.90
8539;DHT22;4307;53.868;11.680;2022-07-23T00:58:11;16.60;99.90
8539;DHT22;4307;53.868;11.680;2022-07-23T01:00:39;16.50;99.90
8539;DHT22;4307;53.868;11.680;2022-07-23T01:03:06;16.60;99.90
8539;DHT22;4307;53.868;11.680;2022-07-23T01:05:33;16.50;99.90
8539;DHT22;4307;53.868;11.680;2022-07-23T01:08:00;16.50;99.90
8539;DHT22;4307;53.868;11.680;2022-07-23T01:10:27;16.50;99.90
8539;DHT22;4307;53.868;11.680;2022-07-23T01:13:01;16.60;99.90
8539;DHT22;4307;53.868;11.680;2022-07-23T01:15:29;16.50;99.90
8539;DHT22;4307;53.868;11.680;2022-07-23T01:17:57;16.50;99.90
8539;DHT22;4307;53.868;11.680;2022-07-23T01:20:23;16.50;99.90
8539;DHT22;4307;53.868;11.680;2022-07-23T01:22:52;16.50;99.90
8539;DHT22;4307;53.868;11.680;2022-07-23T01:25:19;16.50;99.90
8539;DHT22;4307;53.868;11.680;2022-07-23T01:27:47;16.40;99.90
8539;DHT22;4307;53.868;11.680;2022-07-23T01:30:14;16.40;99.90
8539;DHT22;4307;53.868;11.680;2022-07-23T01:32:41;16.40;99.90
8539;DHT22;4307;53.868;11.680;2022-07-23T01:35:09;16.40;99.90
8539;DHT22;4307;53.868;11.680;2022-07-23T01:37:36;16.40;99.90
8539;DHT22;4307;53.868;11.680;2022-07-23T01:40:05;16.30;99.90
8539;DHT22;4307;53.868;11.680;2022-07-23T01:42:32;16.30;99.90
8539;DHT22;4307;53.868;11.680;2022-07-23T01:44:59;16.30;99.90
8539;DHT22;4307;53.868;11.680;2022-07-23T01:47:26;16.30;99.90
8539;DHT22;4307;53.868;11.680;2022-07-23T01:49:52;16.20;99.90
8539;DHT22;4307;53.868;11.680;2022-07-23T01:52:19;16.20;99.90
8539;DHT22;4307;53.868;11.680;2022-07-23T01:54:46;16.20;99.90
8539;DHT22;4307;53.868;11.680;2022-07-23T01:57:14;16.20;99.90
8539;DHT22;4307;53.868;11.680;2022-07-23T01:59:40;16.20;99.90
8539;DHT22;4307;53.868;11.680;2022-07-23T02:02:07;16.10;99.90
8539;DHT22;4307;53.868;11.680;2022-07-23T02:04:34;16.20;99.90
8539;DHT22;4307;53.868;11.680;2022-07-23T02:07:02;16.10;99.90
8539;DHT22;4307;53.868;11.680;2022-07-23T02:09:29;16.10;99.90
8539;DHT22;4307;53.868;11.680;2022-07-23T02:11:56;16.10;99.90
8539;DHT22;4307;53.868;11.680;2022-07-23T02:14:25;16.10;99.90
8539;DHT22;4307;53.868;11.680;2022-07-23T02:16:52;16.10;99.90
8539;DHT22;4307;53.868;11.680;2022-07-23T02:19:19;16.00;99.90
8539;DHT22;4307;53.868;11.680;2022-07-23T02:21:46;16.00;99.90
8539;DHT22;4307;53.868;11.680;2022-07-23T02:24:12;15.90;99.90
8539;DHT22;4307;53.868;11.680;2022-07-23T02:26:39;15.90;99.90
8539;DHT22;4307;53.868;11.680;2022-07-23T02:29:06;15.90;99.90
8539;DHT22;4307;53.868;11.680;2022-07-23T02:31:34;15.90;99.90
8539;DHT22;4307;53.868;11.680;2022-07-23T02:34:01;16.00;99.90
8539;DHT22;4307;53.868;11.680;2022-07-23T02:36:28;16.00;99.90
8539;DHT22;4307;53.868;11.680;2022-07-23T02:38:55;16.00;99.90
8539;DHT22;4307;53.868;11.680;2022-07-23T02:41:22;15.90;99.90
8539;DHT22;4307;53.868;11.680;2022-07-23T02:43:49;16.00;99.90
8539;DHT22;4307;53.868;11.680;2022-07-23T02:46:15;16.00;99.90
8539;DHT22;4307;53.868;11.680;2022-07-23T02:48:44;16.00;99.90
8539;DHT22;4307;53.868;11.680;2022-07-23T02:51:10;16.00;99.90
8539;DHT22;4307;53.868;11.680;2022-07-23T02:53:37;16.00;99.90
8539;DHT22;4307;53.868;11.680;2022-07-23T02:56:04;16.00;99.90
8539;DHT22;4307;53.868;11.680;2022-07-23T02:58:31;16.00;99.90
8539;DHT22;4307;53.868;11.680;2022-07-23T03:00:57;16.00;99.90
8539;DHT22;4307;53.868;11.680;2022-07-23T03:03:24;16.00;99.90
8539;DHT22;4307;53.868;11.680;2022-07-23T03:05:52;15.90;99.90
8539;DHT22;4307;53.868;11.680;2022-07-23T03:08:18;15.90;99.90
8539;DHT22;4307;53.868;11.680;2022-07-23T03:10:45;15.90;99.90
8539;DHT22;4307;53.868;11.680;2022-07-23T03:13:12;15.90;99.90
8539;DHT22;4307;53.868;11.680;2022-07-23T03:15:38;15.80;99.90
8539;DHT22;4307;53.868;11.680;2022-07-23T03:18:05;15.80;99.90
8539;DHT22;4307;53.868;11.680;2022-07-23T03:20:32;15.70;99.90
8539;DHT22;4307;53.868;11.680;2022-07-23T03:23:00;15.70;99.90
8539;DHT22;4307;53.868;11.680;2022-07-23T03:25:26;15.60;99.90
8539;DHT22;4307;53.868;11.680;2022-07-23T03:27:53;15.60;99.90
8539;DHT22;4307;53.868;11.680;2022-07-23T03:30:20;15.60;99.90
8539;DHT22;4307;53.868;11.680;2022-07-23T03:32:47;15.60;99.90
8539;DHT22;4307;53.868;11.680;2022-07-23T03:35:13;15.60;99.90
8539;DHT22;4307;53.868;11.680;2022-07-23T03:37:40;15.50;99.90
8539;DHT22;4307;53.868;11.680;2022-07-23T03:40:09;15.40;99.90
8539;DHT22;4307;53.868;11.680;2022-07-23T03:42:36;15.40;99.90
8539;DHT22;4307;53.868;11.680;2022-07-23T03:45:05;15.30;99.90
8539;DHT22;4307;53.868;11.680;2022-07-23T03:47:32;15.30;99.90
8539;DHT22;4307;53.868;11.680;2022-07-23T03:49:59;15.30;99.90
8539;DHT22;4307;53.868;11.680;2022-07-23T03:52:25;15.30;99.90
8539;DHT22;4307;53.868;11.680;2022-07-23T03:54:52;15.30;99.90
8539;DHT22;4307;53.868;11.680;2022-07-23T03:57:20;15.30;99.90
8539;DHT22;4307;53.868;11.680;2022-07-23T03:59:46;15.30;99.90
8539;DHT22;4307;53.868;11.680;2022-07-23T04:02:13;15.30;99.90
8539;DHT22;4307;53.868;11.680;2022-07-23T04:04:40;15.30;99.90
8539;DHT22;4307;53.868;11.680;2022-07-23T04:07:07;15.30;99.90
8539;DHT22;4307;53.868;11.680;2022-07-23T04:09:33;15.30;99.90
8539;DHT22;4307;53.868;11.680;2022-07-23T04:12:00;15.30;99.90
8539;DHT22;4307;53.868;11.680;2022-07-23T04:14:29;15.30;99.90
8539;DHT22;4307;53.868;11.680;2022-07-23T04:16:55;15.30;99.90
8539;DHT22;4307;53.868;11.680;2022-07-23T04:19:22;15.30;99.90
8539;DHT22;4307;53.868;11.680;2022-07-23T04:21:48;15.30;99.90
8539;DHT22;4307;53.868;11.680;2022-07-23T04:24:15;15.30;99.90
8539;DHT22;4307;53.868;11.680;2022-07-23T04:26:42;15.30;99.90
8539;DHT22;4307;53.868;11.680;2022-07-23T04:29:08;15.30;99.90
8539;DHT22;4307;53.868;11.680;2022-07-23T04:31:37;15.40;99.90
8539;DHT22;4307;53.868;11.680;2022-07-23T04:34:03;15.50;99.90
8539;DHT22;4307;53.868;11.680;2022-07-23T04:36:30;15.50;99.90
8539;DHT22;4307;53.868;11.680;2022-07-23T04:38:57;15.50;99.90
8539;DHT22;4307;53.868;11.680;2022-07-23T04:41:23;15.60;99.90
8539;DHT22;4307;53.868;11.680;2022-07-23T04:43:50;15.60;99.90
8539;DHT22;4307;53.868;11.680;2022-07-23T04:46:17;15.70;99.90
8539;DHT22;4307;53.868;11.680;2022-07-23T04:48:45;15.80;99.90
8539;DHT22;4307;53.868;11.680;2022-07-23T04:51:11;15.90;99.90
8539;DHT22;4307;53.868;11.680;2022-07-23T04:53:38;15.90;99.90
8539;DHT22;4307;53.868;11.680;2022-07-23T04:56:05;15.90;99.90
8539;DHT22;4307;53.868;11.680;2022-07-23T04:58:32;15.90;99.90
8539;DHT22;4307;53.868;11.680;2022-07-23T05:00:59;15.90;99.90
8539;DHT22;4307;53.868;11.680;2022-07-23T05:03:25;15.90;99.90
8539;DHT22;4307;53.868;11.680;2022-07-23T05:05:53;15.90;99.90
8539;DHT22;4307;53.868;11.680;2022-07-23T05:08:20;15.90;99.90
8539;DHT22;4307;53.868;11.680;2022-07-23T05:10:47;15.90;99.90
8539;DHT22;4307;53.868;11.680;2022-07-23T05:13:14;16.00;99.90
8539;DHT22;4307;53.868;11.680;2022-07-23T05:15:41;16.00;99.90
8539;DHT22;4307;53.868;11.680;2022-07-23T05:18:07;16.10;99.90
8539;DHT22;4307;53.868;11.680;2022-07-23T05:20:34;16.10;99.90
8539;DHT22;4307;53.868;11.680;2022-07-23T05:23:02;16.10;99.90
8539;DHT22;4307;53.868;11.680;2022-07-23T05:25:29;16.20;99.90
8539;DHT22;4307;53.868;11.680;2022-07-23T05:27:56;16.20;99.90
8539;DHT22;4307;53.868;11.680;2022-07-23T05:30:23;16.30;99.90
8539;DHT22;4307;53.868;11.680;2022-07-23T05:32:50;16.30;99.90
8539;DHT22;4307;53.868;11.680;2022-07-23T05:35:17;16.30;99.90
8539;DHT22;4307;53.868;11.680;2022-07-23T05:37:43;16.40;99.90
8539;DHT22;4307;53.868;11.680;2022-07-23T05:40:12;16.50;99.90
8539;DHT22;4307;53.868;11.680;2022-07-23T05:42:40;16.50;99.90
8539;DHT22;4307;53.868;11.680;2022-07-23T05:45:07;16.60;99.90
8539;DHT22;4307;53.868;11.680;2022-07-23T05:47:40;16.70;99.90
8539;DHT22;4307;53.868;11.680;2022-07-23T05:50:07;16.70;99.90
8539;DHT22;4307;53.868;11.680;2022-07-23T05:52:34;16.70;99.90
8539;DHT22;4307;53.868;11.680;2022-07-23T05:55:00;16.70;99.90
8539;DHT22;4307;53.868;11.680;2022-07-23T05:57:28;16.70;99.90
8539;DHT22;4307;53.868;11.680;2022-07-23T05:59:55;16.80;99.90
8539;DHT22;4307;53.868;11.680;2022-07-23T06:02:22;16.80;99.90
8539;DHT22;4307;53.868;11.680;2022-07-23T06:04:48;16.80;99.90
8539;DHT22;4307;53.868;11.680;2022-07-23T06:07:15;16.90;99.90
8539;DHT22;4307;53.868;11.680;2022-07-23T06:09:42;16.90;99.90
8539;DHT22;4307;53.868;11.680;2022-07-23T06:12:08;17.00;99.90
8539;DHT22;4307;53.868;11.680;2022-07-23T06:14:36;17.00;99.90
8539;DHT22;4307;53.868;11.680;2022-07-23T06:17:03;17.00;99.90
8539;DHT22;4307;53.868;11.680;2022-07-23T06:19:30;17.00;99.90
8539;DHT22;4307;53.868;11.680;2022-07-23T06:21:56;17.00;99.90
8539;DHT22;4307;53.868;11.680;2022-07-23T06:24:23;17.00;99.90
8539;DHT22;4307;53.868;11.680;2022-07-23T06:26:50;17.00;99.90
8539;DHT22;4307;53.868;11.680;2022-07-23T06:29:16;17.10;99.90
8539;DHT22;4307;53.868;11.680;2022-07-23T06:31:44;17.20;99.90
8539;DHT22;4307;53.868;11.680;2022-07-23T06:34:11;17.20;99.90
8539;DHT22;4307;53.868;11.680;2022-07-23T06:36:38;17.10;99.90
8539;DHT22;4307;53.868;11.680;2022-07-23T06:39:04;17.10;99.90
8539;DHT22;4307;53.868;11.680;2022-07-23T06:41:31;17.20;99.90
8539;DHT22;4307;53.868;11.680;2022-07-23T06:43:58;17.20;99.90
8539;DHT22;4307;53.868;11.680;2022-07-23T06:46:24;17.20;99.90
8539;DHT22;4307;53.868;11.680;2022-07-23T06:48:52;17.30;99.90
8539;DHT22;4307;53.868;11.680;2022-07-23T06:51:19;17.30;99.90
8539;DHT22;4307;53.868;11.680;2022-07-23T06:53:46;17.30;99.90
8539;DHT22;4307;53.868;11.680;2022-07-23T06:56:13;17.40;99.90
8539;DHT22;4307;53.868;11.680;2022-07-23T06:58:40;17.40;99.90
8539;DHT22;4307;53.868;11.680;2022-07-23T07:01:06;17.40;99.90
8539;DHT22;4307;53.868;11.680;2022-07-23T07:03:33;17.50;99.90
8539;DHT22;4307;53.868;11.680;2022-07-23T07:06:01;17.60;99.90
8539;DHT22;4307;53.868;11.680;2022-07-23T07:08:28;17.70;99.90
8539;DHT22;4307;53.868;11.680;2022-07-23T07:10:55;17.80;99.90
8539;DHT22;4307;53.868;11.680;2022-07-23T07:13:22;17.90;99.90
8539;DHT22;4307;53.868;11.680;2022-07-23T07:15:49;17.90;99.90
8539;DHT22;4307;53.868;11.680;2022-07-23T07:18:15;18.10;99.90
8539;DHT22;4307;53.868;11.680;2022-07-23T07:20:42;18.20;99.90
8539;DHT22;4307;53.868;11.680;2022-07-23T07:23:10;18.20;99.90
8539;DHT22;4307;53.868;11.680;2022-07-23T07:25:38;18.20;99.90
8539;DHT22;4307;53.868;11.680;2022-07-23T07:28:04;18.10;99.90
8539;DHT22;4307;53.868;11.680;2022-07-23T07:30:31;18.10;99.90
8539;DHT22;4307;53.868;11.680;2022-07-23T07:32:58;18.10;99.90
8539;DHT22;4307;53.868;11.680;2022-07-23T07:35:25;18.00;99.90
8539;DHT22;4307;53.868;11.680;2022-07-23T07:37:52;18.00;99.90
8539;DHT22;4307;53.868;11.680;2022-07-23T07:40:20;17.90;99.90
8539;DHT22;4307;53.868;11.680;2022-07-23T07:42:47;17.90;99.90
8539;DHT22;4307;53.868;11.680;2022-07-23T07:45:14;17.90;99.90
8539;DHT22;4307;53.868;11.680;2022-07-23T07:47:41;17.90;99.90
8539;DHT22;4307;53.868;11.680;2022-07-23T07:50:08;18.00;99.90
8539;DHT22;4307;53.868;11.680;2022-07-23T07:52:35;18.10;99.90
8539;DHT22;4307;53.868;11.680;2022-07-23T07:55:02;18.20;99.90
8539;DHT22;4307;53.868;11.680;2022-07-23T07:57:31;18.20;99.90
8539;DHT22;4307;53.868;11.680;2022-07-23T07:59:57;18.30;99.90
8539;DHT22;4307;53.868;11.680;2022-07-23T08:02:24;18.50;99.90
8539;DHT22;4307;53.868;11.680;2022-07-23T08:04:51;18.80;99.90
8539;DHT22;4307;53.868;11.680;2022-07-23T08:07:18;19.10;99.90
8539;DHT22;4307;53.868;11.680;2022-07-23T08:09:45;19.60;99.90
8539;DHT22;4307;53.868;11.680;2022-07-23T08:12:11;19.80;99.90
8539;DHT22;4307;53.868;11.680;2022-07-23T08:14:39;19.80;99.90
8539;DHT22;4307;53.868;11.680;2022-07-23T08:17:06;19.70;99.70
8539;DHT22;4307;53.868;11.680;2022-07-23T08:19:33;19.60;99.90
8539;DHT22;4307;53.868;11.680;2022-07-23T08:22:00;19.70;99.80
8539;DHT22;4307;53.868;11.680;2022-07-23T08:24:27;19.80;98.40
8539;DHT22;4307;53.868;11.680;2022-07-23T08:26:53;19.80;97.60
8539;DHT22;4307;53.868;11.680;2022-07-23T08:29:20;20.00;97.20
8539;DHT22;4307;53.868;11.680;2022-07-23T08:31:48;20.20;96.90
8539;DHT22;4307;53.868;11.680;2022-07-23T08:34:15;20.40;96.90
8539;DHT22;4307;53.868;11.680;2022-07-23T08:36:41;20.70;96.70
8539;DHT22;4307;53.868;11.680;2022-07-23T08:39:11;20.90;96.50
8539;DHT22;4307;53.868;11.680;2022-07-23T08:41:39;21.20;96.00
8539;DHT22;4307;53.868;11.680;2022-07-23T08:44:07;21.20;95.40
8539;DHT22;4307;53.868;11.680;2022-07-23T08:46:36;21.00;95.00
8539;DHT22;4307;53.868;11.680;2022-07-23T08:49:04;20.80;95.10
8539;DHT22;4307;53.868;11.680;2022-07-23T08:51:31;20.60;95.30
8539;DHT22;4307;53.868;11.680;2022-07-23T08:53:59;20.30;95.40
8539;DHT22;4307;53.868;11.680;2022-07-23T08:56:26;19.90;95.60
8539;DHT22;4307;53.868;11.680;2022-07-23T08:58:53;19.70;95.90
8539;DHT22;4307;53.868;11.680;2022-07-23T09:01:20;19.60;96.20
8539;DHT22;4307;53.868;11.680;2022-07-23T09:03:47;19.50;96.50
8539;DHT22;4307;53.868;11.680;2022-07-23T09:06:15;19.30;96.80
8539;DHT22;4307;53.868;11.680;2022-07-23T09:08:43;19.20;97.10
8539;DHT22;4307;53.868;11.680;2022-07-23T09:11:11;19.10;97.40
8539;DHT22;4307;53.868;11.680;2022-07-23T09:13:39;19.10;97.70
8539;DHT22;4307;53.868;11.680;2022-07-23T09:16:09;19.20;98.10
8539;DHT22;4307;53.868;11.680;2022-07-23T09:18:40;19.20;98.30
8539;DHT22;4307;53.868;11.680;2022-07-23T09:21:11;19.40;98.40
8539;DHT22;4307;53.868;11.680;2022-07-23T09:23:41;19.50;98.40
8539;DHT22;4307;53.868;11.680;2022-07-23T09:26:20;19.50;98.30
8539;DHT22;4307;53.868;11.680;2022-07-23T09:28:51;19.50;98.10
8539;DHT22;4307;53.868;11.680;2022-07-23T09:31:18;19.50;97.90
8539;DHT22;4307;53.868;11.680;2022-07-23T09:33:45;19.50;97.50
8539;DHT22;4307;53.868;11.680;2022-07-23T09:36:11;19.50;97.50
8539;DHT22;4307;53.868;11.680;2022-07-23T09:38:48;19.70;97.50
8539;DHT22;4307;53.868;11.680;2022-07-23T09:41:15;20.00;96.80
8539;DHT22;4307;53.868;11.680;2022-07-23T09:43:42;20.30;96.60
8539;DHT22;4307;53.868;11.680;2022-07-23T09:46:19;20.50;95.30
8539;DHT22;4307;53.868;11.680;2022-07-23T09:48:46;20.70;94.90
8539;DHT22;4307;53.868;11.680;2022-07-23T09:51:13;20.90;94.80
8539;DHT22;4307;53.868;11.680;2022-07-23T09:53:40;21.20;94.20
8539;DHT22;4307;53.868;11.680;2022-07-23T09:56:09;21.50;94.00
8539;DHT22;4307;53.868;11.680;2022-07-23T09:58:39;21.80;93.60
8539;DHT22;4307;53.868;11.680;2022-07-23T10:01:11;21.90;93.40
8539;DHT22;4307;53.868;11.680;2022-07-23T10:03:39;21.90;92.60
8539;DHT22;4307;53.868;11.680;2022-07-23T10:06:08;21.60;92.70
8539;DHT22;4307;53.868;11.680;2022-07-23T10:08:35;21.40;92.80
8539;DHT22;4307;53.868;11.680;2022-07-23T10:11:02;21.30;92.90
8539;DHT22;4307;53.868;11.680;2022-07-23T10:13:30;21.20;93.20
8539;DHT22;4307;53.868;11.680;2022-07-23T10:16:15;21.20;93.30
8539;DHT22;4307;53.868;11.680;2022-07-23T10:18:42;21.20;93.50
8539;DHT22;4307;53.868;11.680;2022-07-23T10:21:09;21.30;93.40
8539;DHT22;4307;53.868;11.680;2022-07-23T10:23:41;21.30;93.40
8539;DHT22;4307;53.868;11.680;2022-07-23T10:26:15;21.20;93.30
8539;DHT22;4307;53.868;11.680;2022-07-23T10:29:01;21.20;93.50
8539;DHT22;4307;53.868;11.680;2022-07-23T10:31:35;21.10;93.50
8539;DHT22;4307;53.868;11.680;2022-07-23T10:34:12;21.10;93.50
8539;DHT22;4307;53.868;11.680;2022-07-23T10:36:46;21.10;93.40
8539;DHT22;4307;53.868;11.680;2022-07-23T10:39:17;21.00;93.10
8539;DHT22;4307;53.868;11.680;2022-07-23T10:41:44;20.80;93.10
8539;DHT22;4307;53.868;11.680;2022-07-23T10:44:14;20.60;93.10
8539;DHT22;4307;53.868;11.680;2022-07-23T10:46:57;20.60;93.40
8539;DHT22;4307;53.868;11.680;2022-07-23T10:49:33;20.50;93.50
8539;DHT22;4307;53.868;11.680;2022-07-23T10:52:17;20.60;93.60
8539;DHT22;4307;53.868;11.680;2022-07-23T10:54:46;20.70;93.50
8539;DHT22;4307;53.868;11.680;2022-07-23T10:57:14;20.80;93.40
8539;DHT22;4307;53.868;11.680;2022-07-23T11:00:14;20.90;93.40
8539;DHT22;4307;53.868;11.680;2022-07-23T11:02:45;20.90;92.90
8539;DHT22;4307;53.868;11.680;2022-07-23T11:05:14;20.90;92.90
8539;DHT22;4307;53.868;11.680;2022-07-23T11:08:10;20.90;92.90
8539;DHT22;4307;53.868;11.680;2022-07-23T11:10:41;20.90;92.70
8539;DHT22;4307;53.868;11.680;2022-07-23T11:13:31;20.90;92.80
8539;DHT22;4307;53.868;11.680;2022-07-23T11:16:14;20.90;92.80
8539;DHT22;4307;53.868;11.680;2022-07-23T11:18:58;20.90;92.70
8539;DHT22;4307;53.868;11.680;2022-07-23T11:21:48;20.90;93.00
8539;DHT22;4307;53.868;11.680;2022-07-23T11:24:20;21.00;93.20
8539;DHT22;4307;53.868;11.680;2022-07-23T11:26:59;21.20;93.00
8539;DHT22;4307;53.868;11.680;2022-07-23T11:29:40;21.30;92.70
8539;DHT22;4307;53.868;11.680;2022-07-23T11:32:24;21.40;92.50
8539;DHT22;4307;53.868;11.680;2022-07-23T11:34:54;21.40;92.20
8539;DHT22;4307;53.868;11.680;2022-07-23T11:37:41;21.30;92.50
8539;DHT22;4307;53.868;11.680;2022-07-23T11:40:10;21.20;91.90
8539;DHT22;4307;53.868;11.680;2022-07-23T11:42:38;21.10;91.80
8539;DHT22;4307;53.868;11.680;2022-07-23T11:45:07;21.00;91.90
8539;DHT22;4307;53.868;11.680;2022-07-23T11:47:35;20.90;92.10
8539;DHT22;4307;53.868;11.680;2022-07-23T11:50:05;20.90;91.60
8539;DHT22;4307;53.868;11.680;2022-07-23T11:52:32;20.70;91.60
8539;DHT22;4307;53.868;11.680;2022-07-23T11:55:01;20.60;91.50
8539;DHT22;4307;53.868;11.680;2022-07-23T11:57:30;20.60;91.90
8539;DHT22;4307;53.868;11.680;2022-07-23T12:00:02;20.70;92.10
8539;DHT22;4307;53.868;11.680;2022-07-23T12:02:30;20.90;92.10
8539;DHT22;4307;53.868;11.680;2022-07-23T12:04:57;21.40;91.80
8539;DHT22;4307;53.868;11.680;2022-07-23T12:07:30;21.80;91.40
8539;DHT22;4307;53.868;11.680;2022-07-23T12:09:58;22.00;90.20
8539;DHT22;4307;53.868;11.680;2022-07-23T12:12:25;22.00;90.20
8539;DHT22;4307;53.868;11.680;2022-07-23T12:14:55;22.00;89.90
8539;DHT22;4307;53.868;11.680;2022-07-23T12:17:28;21.90;89.60
8539;DHT22;4307;53.868;11.680;2022-07-23T12:19:56;21.80;89.30
8539;DHT22;4307;53.868;11.680;2022-07-23T12:22:26;21.80;89.30
8539;DHT22;4307;53.868;11.680;2022-07-23T12:24:54;21.80;88.70
8539;DHT22;4307;53.868;11.680;2022-07-23T12:27:21;21.70;88.80
8539;DHT22;4307;53.868;11.680;2022-07-23T12:29:48;21.70;89.00
8539;DHT22;4307;53.868;11.680;2022-07-23T12:32:20;21.70;88.90
8539;DHT22;4307;53.868;11.680;2022-07-23T12:34:49;21.70;88.90
8539;DHT22;4307;53.868;11.680;2022-07-23T12:37:31;21.60;88.80
8539;DHT22;4307;53.868;11.680;2022-07-23T12:39:58;21.40;88.50
8539;DHT22;4307;53.868;11.680;2022-07-23T12:42:44;21.30;89.10
8539;DHT22;4307;53.868;11.680;2022-07-23T12:45:11;21.10;88.90
8539;DHT22;4307;53.868;11.680;2022-07-23T12:48:00;21.00;89.20
8539;DHT22;4307;53.868;11.680;2022-07-23T12:50:33;21.00;89.40
8539;DHT22;4307;53.868;11.680;2022-07-23T12:53:10;20.90;89.50
8539;DHT22;4307;53.868;11.680;2022-07-23T12:55:38;20.80;89.80
8539;DHT22;4307;53.868;11.680;2022-07-23T12:58:10;20.90;90.00
8539;DHT22;4307;53.868;11.680;2022-07-23T13:00:58;20.90;90.20
8539;DHT22;4307;53.868;11.680;2022-07-23T13:03:27;21.10;90.30
8539;DHT22;4307;53.868;11.680;2022-07-23T13:05:54;21.50;90.50
8539;DHT22;4307;53.868;11.680;2022-07-23T13:08:23;22.00;90.40
8539;DHT22;4307;53.868;11.680;2022-07-23T13:10:51;22.60;90.00
8539;DHT22;4307;53.868;11.680;2022-07-23T13:13:20;22.90;88.50
8539;DHT22;4307;53.868;11.680;2022-07-23T13:15:48;23.00;86.60
8539;DHT22;4307;53.868;11.680;2022-07-23T13:18:15;23.00;86.50
8539;DHT22;4307;53.868;11.680;2022-07-23T13:20:42;23.60;86.60
8539;DHT22;4307;53.868;11.680;2022-07-23T13:23:09;24.00;84.70
8539;DHT22;4307;53.868;11.680;2022-07-23T13:25:37;24.20;84.50
8539;DHT22;4307;53.868;11.680;2022-07-23T13:28:04;24.30;83.60
8539;DHT22;4307;53.868;11.680;2022-07-23T13:30:31;24.60;84.10
8539;DHT22;4307;53.868;11.680;2022-07-23T13:32:57;24.70;82.20
8539;DHT22;4307;53.868;11.680;2022-07-23T13:35:24;24.20;80.80
8539;DHT22;4307;53.868;11.680;2022-07-23T13:37:51;23.70;81.20
8539;DHT22;4307;53.868;11.680;2022-07-23T13:40:18;23.30;82.20
8539;DHT22;4307;53.868;11.680;2022-07-23T13:42:46;23.10;83.10
8539;DHT22;4307;53.868;11.680;2022-07-23T13:45:12;22.90;83.50
8539;DHT22;4307;53.868;11.680;2022-07-23T13:47:39;22.70;83.90
8539;DHT22;4307;53.868;11.680;2022-07-23T13:50:07;22.50;84.50
8539;DHT22;4307;53.868;11.680;2022-07-23T13:52:34;22.40;85.00
8539;DHT22;4307;53.868;11.680;2022-07-23T13:55:01;22.20;85.50
8539;DHT22;4307;53.868;11.680;2022-07-23T13:57:29;22.20;86.40
8539;DHT22;4307;53.868;11.680;2022-07-23T13:59:57;22.10;87.10
8539;DHT22;4307;53.868;11.680;2022-07-23T14:02:24;22.10;87.50
8539;DHT22;4307;53.868;11.680;2022-07-23T14:04:51;22.20;87.90
8539;DHT22;4307;53.868;11.680;2022-07-23T14:07:19;22.40;88.00
8539;DHT22;4307;53.868;11.680;2022-07-23T14:09:46;22.60;87.70
8539;DHT22;4307;53.868;11.680;2022-07-23T14:12:13;22.80;87.00
8539;DHT22;4307;53.868;11.680;2022-07-23T14:14:39;23.00;86.40
8539;DHT22;4307;53.868;11.680;2022-07-23T14:17:07;23.10;85.80
8539;DHT22;4307;53.868;11.680;2022-07-23T14:19:34;23.30;86.00
8539;DHT22;4307;53.868;11.680;2022-07-23T14:22:01;23.40;86.00
8539;DHT22;4307;53.868;11.680;2022-07-23T14:24:27;23.50;85.70
8539;DHT22;4307;53.868;11.680;2022-07-23T14:26:54;23.50;84.50
8539;DHT22;4307;53.868;11.680;2022-07-23T14:29:21;23.20;83.90
8539;DHT22;4307;53.868;11.680;2022-07-23T14:31:48;23.00;84.80
8539;DHT22;4307;53.868;11.680;2022-07-23T14:34:16;22.80;85.60
8539;DHT22;4307;53.868;11.680;2022-07-23T14:36:43;22.70;86.20
8539;DHT22;4307;53.868;11.680;2022-07-23T14:39:09;22.60;86.70
8539;DHT22;4307;53.868;11.680;2022-07-23T14:41:37;22.50;87.00
8539;DHT22;4307;53.868;11.680;2022-07-23T14:44:04;22.40;87.40
8539;DHT22;4307;53.868;11.680;2022-07-23T14:46:31;22.40;88.10
8539;DHT22;4307;53.868;11.680;2022-07-23T14:48:58;22.30;88.40
8539;DHT22;4307;53.868;11.680;2022-07-23T14:51:26;22.40;87.70
8539;DHT22;4307;53.868;11.680;2022-07-23T14:53:53;22.50;86.20
8539;DHT22;4307;53.868;11.680;2022-07-23T14:56:20;22.50;85.10
8539;DHT22;4307;53.868;11.680;2022-07-23T14:58:46;22.50;85.00
8539;DHT22;4307;53.868;11.680;2022-07-23T15:01:13;22.60;85.10
8539;DHT22;4307;53.868;11.680;2022-07-23T15:03:40;22.60;84.80
8539;DHT22;4307;53.868;11.680;2022-07-23T15:06:07;22.70;84.60
8539;DHT22;4307;53.868;11.680;2022-07-23T15:08:35;22.60;84.70
8539;DHT22;4307;53.868;11.680;2022-07-23T15:11:01;22.60;84.90
8539;DHT22;4307;53.868;11.680;2022-07-23T15:13:28;22.60;85.10
8539;DHT22;4307;53.868;11.680;2022-07-23T15:15:54;22.50;85.50
8539;DHT22;4307;53.868;11.680;2022-07-23T15:18:21;22.40;86.10
8539;DHT22;4307;53.868;11.680;2022-07-23T15:20:48;22.40;86.90
8539;DHT22;4307;53.868;11.680;2022-07-23T15:23:15;22.30;87.40
8539;DHT22;4307;53.868;11.680;2022-07-23T15:25:43;22.30;87.60
8539;DHT22;4307;53.868;11.680;2022-07-23T15:28:09;22.30;87.80
8539;DHT22;4307;53.868;11.680;2022-07-23T15:30:36;22.20;87.70
8539;DHT22;4307;53.868;11.680;2022-07-23T15:33:03;22.20;87.80
8539;DHT22;4307;53.868;11.680;2022-07-23T15:35:31;22.20;88.40
8539;DHT22;4307;53.868;11.680;2022-07-23T15:37:57;22.20;87.10
8539;DHT22;4307;53.868;11.680;2022-07-23T15:40:24;22.20;86.70
8539;DHT22;4307;53.868;11.680;2022-07-23T15:42:53;22.20;86.30
8539;DHT22;4307;53.868;11.680;2022-07-23T15:45:19;22.30;86.20
8539;DHT22;4307;53.868;11.680;2022-07-23T15:47:47;22.30;86.00
8539;DHT22;4307;53.868;11.680;2022-07-23T15:50:14;22.30;85.70
8539;DHT22;4307;53.868;11.680;2022-07-23T15:52:41;22.20;85.40